Terminal Aerodrome Forecast
Issued by NWS

Home | Current Version | Previous Version | Text Only | Print | Product List | Glossary On
Versions: 1 2 3 4 5 6 7 8 9 10 11 12
000
FTUS42 TJSJ 080537
TAFKPK
TAF
TKPK 080537Z 0806/0906 06010KT P6SM SCT018
     FM081300 06013KT P6SM FEW020 SCT040
     FM082300 06008KT P6SM SCT018
      AMD NOT SKED TIL 081100=

USA.gov is the U.S. government's official web portal to all federal, state and local government web resources and services.